sensor_id;sensor_type;location;lat;lon;timestamp;temperature;humidity
18169;DHT22;49877;50.398;30.324;2022-10-17T00:00:44;5.90;99.90
18169;DHT22;49877;50.398;30.324;2022-10-17T00:03:11;5.90;99.90
18169;DHT22;49877;50.398;30.324;2022-10-17T00:05:38;5.90;99.90
18169;DHT22;49877;50.398;30.324;2022-10-17T00:08:07;5.90;99.90
18169;DHT22;49877;50.398;30.324;2022-10-17T00:10:34;5.90;99.90
18169;DHT22;49877;50.398;30.324;2022-10-17T00:13:01;5.90;99.90
18169;DHT22;49877;50.398;30.324;2022-10-17T00:15:28;5.90;99.90
18169;DHT22;49877;50.398;30.324;2022-10-17T00:17:55;5.90;99.90
18169;DHT22;49877;50.398;30.324;2022-10-17T00:20:22;5.90;99.90
18169;DHT22;49877;50.398;30.324;2022-10-17T00:22:48;5.80;99.90
18169;DHT22;49877;50.398;30.324;2022-10-17T00:25:17;5.90;99.90
18169;DHT22;49877;50.398;30.324;2022-10-17T00:27:44;5.80;99.90
18169;DHT22;49877;50.398;30.324;2022-10-17T00:30:12;5.70;99.90
18169;DHT22;49877;50.398;30.324;2022-10-17T00:32:40;5.70;99.90
18169;DHT22;49877;50.398;30.324;2022-10-17T00:35:08;5.70;99.90
18169;DHT22;49877;50.398;30.324;2022-10-17T00:37:35;5.70;99.90
18169;DHT22;49877;50.398;30.324;2022-10-17T00:40:03;5.60;99.90
18169;DHT22;49877;50.398;30.324;2022-10-17T00:42:31;5.60;99.90
18169;DHT22;49877;50.398;30.324;2022-10-17T00:45:18;5.50;99.90
18169;DHT22;49877;50.398;30.324;2022-10-17T00:47:47;5.50;99.90
18169;DHT22;49877;50.398;30.324;2022-10-17T00:50:16;5.40;99.90
18169;DHT22;49877;50.398;30.324;2022-10-17T00:52:43;5.40;99.90
18169;DHT22;49877;50.398;30.324;2022-10-17T00:55:16;5.30;99.90
18169;DHT22;49877;50.398;30.324;2022-10-17T00:57:45;5.30;99.90
18169;DHT22;49877;50.398;30.324;2022-10-17T01:00:14;5.30;99.90
18169;DHT22;49877;50.398;30.324;2022-10-17T01:02:41;5.20;99.90
18169;DHT22;49877;50.398;30.324;2022-10-17T01:05:09;5.20;99.90
18169;DHT22;49877;50.398;30.324;2022-10-17T01:07:37;5.10;99.90
18169;DHT22;49877;50.398;30.324;2022-10-17T01:10:06;5.10;99.90
18169;DHT22;49877;50.398;30.324;2022-10-17T01:12:41;5.00;99.90
18169;DHT22;49877;50.398;30.324;2022-10-17T01:15:18;5.00;99.90
18169;DHT22;49877;50.398;30.324;2022-10-17T01:17:55;5.00;99.90
18169;DHT22;49877;50.398;30.324;2022-10-17T01:20:52;5.00;99.90
18169;DHT22;49877;50.398;30.324;2022-10-17T01:23:46;5.00;99.90
18169;DHT22;49877;50.398;30.324;2022-10-17T01:26:24;5.00;99.90
18169;DHT22;49877;50.398;30.324;2022-10-17T01:29:31;5.00;99.90
18169;DHT22;49877;50.398;30.324;2022-10-17T01:32:01;5.00;99.90
18169;DHT22;49877;50.398;30.324;2022-10-17T01:34:31;5.00;99.90
18169;DHT22;49877;50.398;30.324;2022-10-17T01:37:04;5.00;99.90
18169;DHT22;49877;50.398;30.324;2022-10-17T01:39:40;5.00;99.90
18169;DHT22;49877;50.398;30.324;2022-10-17T01:42:12;5.00;99.90
18169;DHT22;49877;50.398;30.324;2022-10-17T01:44:46;5.00;99.90
18169;DHT22;49877;50.398;30.324;2022-10-17T01:47:18;5.10;99.90
18169;DHT22;49877;50.398;30.324;2022-10-17T01:49:48;5.10;99.90
18169;DHT22;49877;50.398;30.324;2022-10-17T01:52:19;5.10;99.90
18169;DHT22;49877;50.398;30.324;2022-10-17T01:54:50;5.10;99.90
18169;DHT22;49877;50.398;30.324;2022-10-17T01:57:22;5.10;99.90
18169;DHT22;49877;50.398;30.324;2022-10-17T01:59:51;5.10;99.90
18169;DHT22;49877;50.398;30.324;2022-10-17T02:02:20;5.10;99.90
18169;DHT22;49877;50.398;30.324;2022-10-17T02:04:47;5.20;99.90
18169;DHT22;49877;50.398;30.324;2022-10-17T02:07:15;5.20;99.90
18169;DHT22;49877;50.398;30.324;2022-10-17T02:09:42;5.20;99.90
18169;DHT22;49877;50.398;30.324;2022-10-17T02:12:31;5.20;99.90
18169;DHT22;49877;50.398;30.324;2022-10-17T02:15:09;5.30;99.90
18169;DHT22;49877;50.398;30.324;2022-10-17T02:17:46;5.30;99.90
18169;DHT22;49877;50.398;30.324;2022-10-17T02:20:19;5.30;99.90
18169;DHT22;49877;50.398;30.324;2022-10-17T02:22:52;5.30;99.90
18169;DHT22;49877;50.398;30.324;2022-10-17T02:25:28;5.30;99.90
18169;DHT22;49877;50.398;30.324;2022-10-17T02:27:59;5.30;99.90
18169;DHT22;49877;50.398;30.324;2022-10-17T02:30:34;5.30;99.90
18169;DHT22;49877;50.398;30.324;2022-10-17T02:33:06;5.30;99.90
18169;DHT22;49877;50.398;30.324;2022-10-17T02:35:37;5.30;99.90
18169;DHT22;49877;50.398;30.324;2022-10-17T02:38:07;5.30;99.90
18169;DHT22;49877;50.398;30.324;2022-10-17T02:40:35;5.30;99.90
18169;DHT22;49877;50.398;30.324;2022-10-17T02:43:03;5.30;99.90
18169;DHT22;49877;50.398;30.324;2022-10-17T02:45:33;5.30;99.90
18169;DHT22;49877;50.398;30.324;2022-10-17T02:48:04;5.20;99.90
18169;DHT22;49877;50.398;30.324;2022-10-17T02:50:41;5.20;99.90
18169;DHT22;49877;50.398;30.324;2022-10-17T02:53:13;5.20;99.90
18169;DHT22;49877;50.398;30.324;2022-10-17T02:55:46;5.20;99.90
18169;DHT22;49877;50.398;30.324;2022-10-17T02:58:18;5.20;99.90
18169;DHT22;49877;50.398;30.324;2022-10-17T03:00:47;5.20;99.90
18169;DHT22;49877;50.398;30.324;2022-10-17T03:03:25;5.20;99.90
18169;DHT22;49877;50.398;30.324;2022-10-17T03:05:53;5.20;99.90
18169;DHT22;49877;50.398;30.324;2022-10-17T03:08:20;5.20;99.90
18169;DHT22;49877;50.398;30.324;2022-10-17T03:10:47;5.20;99.90
18169;DHT22;49877;50.398;30.324;2022-10-17T03:13:14;5.20;99.90
18169;DHT22;49877;50.398;30.324;2022-10-17T03:15:41;5.20;99.90
18169;DHT22;49877;50.398;30.324;2022-10-17T03:18:08;5.20;99.90
18169;DHT22;49877;50.398;30.324;2022-10-17T03:20:36;5.20;99.90
18169;DHT22;49877;50.398;30.324;2022-10-17T03:23:03;5.20;99.90
18169;DHT22;49877;50.398;30.324;2022-10-17T03:25:30;5.20;99.90
18169;DHT22;49877;50.398;30.324;2022-10-17T03:27:57;5.30;99.90
18169;DHT22;49877;50.398;30.324;2022-10-17T03:30:25;5.30;99.90
18169;DHT22;49877;50.398;30.324;2022-10-17T03:32:51;5.30;99.90
18169;DHT22;49877;50.398;30.324;2022-10-17T03:35:18;5.30;99.90
18169;DHT22;49877;50.398;30.324;2022-10-17T03:37:46;5.30;99.90
18169;DHT22;49877;50.398;30.324;2022-10-17T03:40:13;5.30;99.90
18169;DHT22;49877;50.398;30.324;2022-10-17T03:42:40;5.30;99.90
18169;DHT22;49877;50.398;30.324;2022-10-17T03:45:07;5.30;99.90
18169;DHT22;49877;50.398;30.324;2022-10-17T03:47:35;5.30;99.90
18169;DHT22;49877;50.398;30.324;2022-10-17T03:50:01;5.30;99.90
18169;DHT22;49877;50.398;30.324;2022-10-17T03:52:28;5.30;99.90
18169;DHT22;49877;50.398;30.324;2022-10-17T03:54:56;5.20;99.90
18169;DHT22;49877;50.398;30.324;2022-10-17T03:57:23;5.20;99.90
18169;DHT22;49877;50.398;30.324;2022-10-17T03:59:50;5.20;99.90
18169;DHT22;49877;50.398;30.324;2022-10-17T04:02:17;5.20;99.90
18169;DHT22;49877;50.398;30.324;2022-10-17T04:04:44;5.20;99.90
18169;DHT22;49877;50.398;30.324;2022-10-17T04:07:10;5.20;99.90
18169;DHT22;49877;50.398;30.324;2022-10-17T04:09:37;5.20;99.90
18169;DHT22;49877;50.398;30.324;2022-10-17T04:12:06;5.20;99.90
18169;DHT22;49877;50.398;30.324;2022-10-17T04:14:32;5.20;99.90
18169;DHT22;49877;50.398;30.324;2022-10-17T04:16:59;5.20;99.90
18169;DHT22;49877;50.398;30.324;2022-10-17T04:19:26;5.20;99.90
18169;DHT22;49877;50.398;30.324;2022-10-17T04:21:53;5.20;99.90
18169;DHT22;49877;50.398;30.324;2022-10-17T04:24:19;5.20;99.90
18169;DHT22;49877;50.398;30.324;2022-10-17T04:26:48;5.20;99.90
18169;DHT22;49877;50.398;30.324;2022-10-17T04:29:16;5.20;99.90
18169;DHT22;49877;50.398;30.324;2022-10-17T04:31:43;5.10;99.90
18169;DHT22;49877;50.398;30.324;2022-10-17T04:34:10;5.10;99.90
18169;DHT22;49877;50.398;30.324;2022-10-17T04:36:38;5.10;99.90
18169;DHT22;49877;50.398;30.324;2022-10-17T04:39:05;5.00;99.90
18169;DHT22;49877;50.398;30.324;2022-10-17T04:41:32;5.00;99.90
18169;DHT22;49877;50.398;30.324;2022-10-17T04:43:59;5.10;99.90
18169;DHT22;49877;50.398;30.324;2022-10-17T04:46:27;5.10;99.90
18169;DHT22;49877;50.398;30.324;2022-10-17T04:48:54;5.10;99.90
18169;DHT22;49877;50.398;30.324;2022-10-17T04:51:21;5.10;99.90
18169;DHT22;49877;50.398;30.324;2022-10-17T04:53:47;5.10;99.90
18169;DHT22;49877;50.398;30.324;2022-10-17T04:56:16;5.20;99.90
18169;DHT22;49877;50.398;30.324;2022-10-17T04:58:44;5.10;99.90
18169;DHT22;49877;50.398;30.324;2022-10-17T05:01:13;5.20;99.90
18169;DHT22;49877;50.398;30.324;2022-10-17T05:03:41;5.20;99.90
18169;DHT22;49877;50.398;30.324;2022-10-17T05:06:09;5.20;99.90
18169;DHT22;49877;50.398;30.324;2022-10-17T05:08:36;5.30;99.90
18169;DHT22;49877;50.398;30.324;2022-10-17T05:11:04;5.30;99.90
18169;DHT22;49877;50.398;30.324;2022-10-17T05:13:31;5.30;99.90
18169;DHT22;49877;50.398;30.324;2022-10-17T05:15:58;5.30;99.90
18169;DHT22;49877;50.398;30.324;2022-10-17T05:18:26;5.40;99.90
18169;DHT22;49877;50.398;30.324;2022-10-17T05:20:54;5.40;99.90
18169;DHT22;49877;50.398;30.324;2022-10-17T05:23:20;5.40;99.90
18169;DHT22;49877;50.398;30.324;2022-10-17T05:25:52;5.50;99.90
18169;DHT22;49877;50.398;30.324;2022-10-17T05:28:19;5.60;99.90
18169;DHT22;49877;50.398;30.324;2022-10-17T05:30:45;5.60;99.90
18169;DHT22;49877;50.398;30.324;2022-10-17T05:33:12;5.70;99.90
18169;DHT22;49877;50.398;30.324;2022-10-17T05:35:39;5.70;99.90
18169;DHT22;49877;50.398;30.324;2022-10-17T05:38:07;5.80;99.90
18169;DHT22;49877;50.398;30.324;2022-10-17T05:40:34;5.80;99.90
18169;DHT22;49877;50.398;30.324;2022-10-17T05:43:01;5.90;99.90
18169;DHT22;49877;50.398;30.324;2022-10-17T05:45:28;5.90;99.90
18169;DHT22;49877;50.398;30.324;2022-10-17T05:47:54;6.00;99.90
18169;DHT22;49877;50.398;30.324;2022-10-17T05:50:21;6.10;99.90
18169;DHT22;49877;50.398;30.324;2022-10-17T05:52:52;6.10;99.90
18169;DHT22;49877;50.398;30.324;2022-10-17T05:55:20;6.20;99.90
18169;DHT22;49877;50.398;30.324;2022-10-17T05:57:47;6.30;99.90
18169;DHT22;49877;50.398;30.324;2022-10-17T06:00:14;6.40;99.90
18169;DHT22;49877;50.398;30.324;2022-10-17T06:02:42;6.40;99.90
18169;DHT22;49877;50.398;30.324;2022-10-17T06:05:10;6.50;99.90
18169;DHT22;49877;50.398;30.324;2022-10-17T06:07:37;6.60;99.90
18169;DHT22;49877;50.398;30.324;2022-10-17T06:10:05;6.60;99.90
18169;DHT22;49877;50.398;30.324;2022-10-17T06:12:33;6.70;99.90
18169;DHT22;49877;50.398;30.324;2022-10-17T06:15:00;6.80;99.90
18169;DHT22;49877;50.398;30.324;2022-10-17T06:17:27;6.90;99.90
18169;DHT22;49877;50.398;30.324;2022-10-17T06:19:55;7.00;99.90
18169;DHT22;49877;50.398;30.324;2022-10-17T06:22:22;7.00;99.90
18169;DHT22;49877;50.398;30.324;2022-10-17T06:24:48;7.10;99.90
18169;DHT22;49877;50.398;30.324;2022-10-17T06:27:17;7.20;99.90
18169;DHT22;49877;50.398;30.324;2022-10-17T06:29:45;7.30;99.90
18169;DHT22;49877;50.398;30.324;2022-10-17T06:32:12;7.40;99.90
18169;DHT22;49877;50.398;30.324;2022-10-17T06:34:39;7.50;99.90
18169;DHT22;49877;50.398;30.324;2022-10-17T06:37:06;7.60;99.90
18169;DHT22;49877;50.398;30.324;2022-10-17T06:39:34;7.60;99.90
18169;DHT22;49877;50.398;30.324;2022-10-17T06:42:01;7.70;99.90
18169;DHT22;49877;50.398;30.324;2022-10-17T06:44:28;7.80;99.90
18169;DHT22;49877;50.398;30.324;2022-10-17T06:46:58;7.90;99.90
18169;DHT22;49877;50.398;30.324;2022-10-17T06:49:25;8.00;99.90
18169;DHT22;49877;50.398;30.324;2022-10-17T06:51:52;8.10;99.90
18169;DHT22;49877;50.398;30.324;2022-10-17T06:54:18;8.20;99.90
18169;DHT22;49877;50.398;30.324;2022-10-17T06:56:45;8.30;99.90
18169;DHT22;49877;50.398;30.324;2022-10-17T06:59:12;8.40;99.90
18169;DHT22;49877;50.398;30.324;2022-10-17T07:01:40;8.50;99.90
18169;DHT22;49877;50.398;30.324;2022-10-17T07:04:08;8.60;99.90
18169;DHT22;49877;50.398;30.324;2022-10-17T07:06:35;8.70;99.90
18169;DHT22;49877;50.398;30.324;2022-10-17T07:09:03;8.80;99.90
18169;DHT22;49877;50.398;30.324;2022-10-17T07:11:31;8.90;99.90
18169;DHT22;49877;50.398;30.324;2022-10-17T07:13:58;9.00;99.90
18169;DHT22;49877;50.398;30.324;2022-10-17T07:16:25;9.10;99.90
18169;DHT22;49877;50.398;30.324;2022-10-17T07:18:53;9.20;99.90
18169;DHT22;49877;50.398;30.324;2022-10-17T07:21:21;9.20;99.90
18169;DHT22;49877;50.398;30.324;2022-10-17T07:23:48;9.30;99.90
18169;DHT22;49877;50.398;30.324;2022-10-17T07:26:16;9.40;99.90
18169;DHT22;49877;50.398;30.324;2022-10-17T07:28:44;9.50;99.90
18169;DHT22;49877;50.398;30.324;2022-10-17T07:31:13;9.60;99.90
18169;DHT22;49877;50.398;30.324;2022-10-17T07:33:40;9.60;99.90
18169;DHT22;49877;50.398;30.324;2022-10-17T07:36:08;9.70;99.90
18169;DHT22;49877;50.398;30.324;2022-10-17T07:38:36;9.80;99.90
18169;DHT22;49877;50.398;30.324;2022-10-17T07:41:05;9.90;99.90
18169;DHT22;49877;50.398;30.324;2022-10-17T07:43:33;9.90;99.90
18169;DHT22;49877;50.398;30.324;2022-10-17T07:46:01;10.00;99.90
18169;DHT22;49877;50.398;30.324;2022-10-17T07:48:28;10.10;99.90
18169;DHT22;49877;50.398;30.324;2022-10-17T07:50:55;10.20;99.90
18169;DHT22;49877;50.398;30.324;2022-10-17T07:53:22;10.20;99.90
18169;DHT22;49877;50.398;30.324;2022-10-17T07:55:50;10.30;99.90
18169;DHT22;49877;50.398;30.324;2022-10-17T07:58:17;10.40;99.90
18169;DHT22;49877;50.398;30.324;2022-10-17T08:00:44;10.40;99.90
18169;DHT22;49877;50.398;30.324;2022-10-17T08:03:12;10.50;99.90
18169;DHT22;49877;50.398;30.324;2022-10-17T08:05:39;10.60;99.90
18169;DHT22;49877;50.398;30.324;2022-10-17T08:08:06;10.60;99.90
18169;DHT22;49877;50.398;30.324;2022-10-17T08:10:33;10.70;99.90
18169;DHT22;49877;50.398;30.324;2022-10-17T08:13:01;10.80;99.90
18169;DHT22;49877;50.398;30.324;2022-10-17T08:15:28;10.80;99.90
18169;DHT22;49877;50.398;30.324;2022-10-17T08:17:55;10.90;99.90
18169;DHT22;49877;50.398;30.324;2022-10-17T08:20:22;10.90;99.90
18169;DHT22;49877;50.398;30.324;2022-10-17T08:22:53;11.00;99.90
18169;DHT22;49877;50.398;30.324;2022-10-17T08:25:20;11.10;99.90
18169;DHT22;49877;50.398;30.324;2022-10-17T08:27:47;11.10;99.90
18169;DHT22;49877;50.398;30.324;2022-10-17T08:30:16;11.20;99.90
18169;DHT22;49877;50.398;30.324;2022-10-17T08:32:42;11.30;99.90
18169;DHT22;49877;50.398;30.324;2022-10-17T08:35:10;11.40;99.90
18169;DHT22;49877;50.398;30.324;2022-10-17T08:37:36;11.40;99.90
18169;DHT22;49877;50.398;30.324;2022-10-17T08:40:04;11.50;99.90
18169;DHT22;49877;50.398;30.324;2022-10-17T08:42:45;11.60;99.90
18169;DHT22;49877;50.398;30.324;2022-10-17T08:45:22;11.60;99.90
18169;DHT22;49877;50.398;30.324;2022-10-17T08:47:54;11.70;99.90
18169;DHT22;49877;50.398;30.324;2022-10-17T08:50:27;11.80;99.90
18169;DHT22;49877;50.398;30.324;2022-10-17T08:53:00;11.90;99.90
18169;DHT22;49877;50.398;30.324;2022-10-17T08:55:31;11.90;99.90
18169;DHT22;49877;50.398;30.324;2022-10-17T08:57:58;12.00;99.90
18169;DHT22;49877;50.398;30.324;2022-10-17T09:00:28;12.10;99.90
18169;DHT22;49877;50.398;30.324;2022-10-17T09:03:12;12.20;99.90
18169;DHT22;49877;50.398;30.324;2022-10-17T09:05:47;12.30;99.90
18169;DHT22;49877;50.398;30.324;2022-10-17T09:08:28;12.30;99.90
18169;DHT22;49877;50.398;30.324;2022-10-17T09:11:01;12.40;99.90
18169;DHT22;49877;50.398;30.324;2022-10-17T09:13:38;12.50;99.90
18169;DHT22;49877;50.398;30.324;2022-10-17T09:16:21;12.50;99.90
18169;DHT22;49877;50.398;30.324;2022-10-17T09:18:59;12.60;99.90
18169;DHT22;49877;50.398;30.324;2022-10-17T09:21:35;12.70;99.90
18169;DHT22;49877;50.398;30.324;2022-10-17T09:24:08;12.70;99.90
18169;DHT22;49877;50.398;30.324;2022-10-17T09:26:38;12.80;99.90
18169;DHT22;49877;50.398;30.324;2022-10-17T09:29:13;12.90;99.90
18169;DHT22;49877;50.398;30.324;2022-10-17T09:31:44;12.90;99.90
18169;DHT22;49877;50.398;30.324;2022-10-17T09:34:13;13.00;99.90
18169;DHT22;49877;50.398;30.324;2022-10-17T09:36:40;13.10;99.90
18169;DHT22;49877;50.398;30.324;2022-10-17T09:39:12;13.10;99.90
18169;DHT22;49877;50.398;30.324;2022-10-17T09:41:42;13.20;99.90
18169;DHT22;49877;50.398;30.324;2022-10-17T09:44:15;13.30;99.90
18169;DHT22;49877;50.398;30.324;2022-10-17T09:46:54;13.30;99.90
18169;DHT22;49877;50.398;30.324;2022-10-17T09:49:30;13.40;99.90
18169;DHT22;49877;50.398;30.324;2022-10-17T09:51:57;13.40;99.90
18169;DHT22;49877;50.398;30.324;2022-10-17T09:54:26;13.50;99.90
18169;DHT22;49877;50.398;30.324;2022-10-17T09:56:59;13.60;99.90
18169;DHT22;49877;50.398;30.324;2022-10-17T09:59:32;13.60;99.90
18169;DHT22;49877;50.398;30.324;2022-10-17T10:02:13;13.60;99.90
18169;DHT22;49877;50.398;30.324;2022-10-17T10:04:54;13.70;99.90
18169;DHT22;49877;50.398;30.324;2022-10-17T10:07:22;13.80;99.90
18169;DHT22;49877;50.398;30.324;2022-10-17T10:09:49;13.80;99.90
18169;DHT22;49877;50.398;30.324;2022-10-17T10:12:18;13.90;99.90
18169;DHT22;49877;50.398;30.324;2022-10-17T10:14:45;13.90;99.90
18169;DHT22;49877;50.398;30.324;2022-10-17T10:17:34;14.00;99.90
18169;DHT22;49877;50.398;30.324;2022-10-17T10:20:05;14.10;99.90
18169;DHT22;49877;50.398;30.324;2022-10-17T10:23:04;14.10;99.90
18169;DHT22;49877;50.398;30.324;2022-10-17T10:25:31;14.20;99.90
18169;DHT22;49877;50.398;30.324;2022-10-17T10:27:58;14.20;99.90
18169;DHT22;49877;50.398;30.324;2022-10-17T10:30:28;14.30;99.90
18169;DHT22;49877;50.398;30.324;2022-10-17T10:32:58;14.30;99.90
18169;DHT22;49877;50.398;30.324;2022-10-17T10:35:31;14.30;99.90
18169;DHT22;49877;50.398;30.324;2022-10-17T10:38:00;14.40;99.90
18169;DHT22;49877;50.398;30.324;2022-10-17T10:40:32;14.50;99.90
18169;DHT22;49877;50.398;30.324;2022-10-17T10:43:02;14.50;99.90
18169;DHT22;49877;50.398;30.324;2022-10-17T10:45:40;14.60;99.90
18169;DHT22;49877;50.398;30.324;2022-10-17T10:48:18;14.60;99.90
18169;DHT22;49877;50.398;30.324;2022-10-17T10:50:48;14.70;99.90
18169;DHT22;49877;50.398;30.324;2022-10-17T10:53:28;14.70;99.90
18169;DHT22;49877;50.398;30.324;2022-10-17T10:55:59;14.80;99.90
18169;DHT22;49877;50.398;30.324;2022-10-17T10:58:33;14.80;99.90
18169;DHT22;49877;50.398;30.324;2022-10-17T11:01:04;14.80;99.90
18169;DHT22;49877;50.398;30.324;2022-10-17T11:03:38;14.90;99.90
18169;DHT22;49877;50.398;30.324;2022-10-17T11:06:19;14.90;99.90
18169;DHT22;49877;50.398;30.324;2022-10-17T11:11:24;15.00;99.90
18169;DHT22;49877;50.398;30.324;2022-10-17T11:13:59;15.00;99.90
18169;DHT22;49877;50.398;30.324;2022-10-17T11:16:31;15.10;99.90
18169;DHT22;49877;50.398;30.324;2022-10-17T11:19:07;15.10;99.90
18169;DHT22;49877;50.398;30.324;2022-10-17T11:21:42;15.20;99.90
18169;DHT22;49877;50.398;30.324;2022-10-17T11:24:16;15.20;99.90
18169;DHT22;49877;50.398;30.324;2022-10-17T11:26:51;15.30;99.90
18169;DHT22;49877;50.398;30.324;2022-10-17T11:29:19;15.30;99.90
18169;DHT22;49877;50.398;30.324;2022-10-17T11:31:51;15.40;99.90
18169;DHT22;49877;50.398;30.324;2022-10-17T11:34:24;15.40;99.90
18169;DHT22;49877;50.398;30.324;2022-10-17T11:36:55;15.40;99.90
18169;DHT22;49877;50.398;30.324;2022-10-17T11:39:28;15.50;99.90
18169;DHT22;49877;50.398;30.324;2022-10-17T11:41:59;15.50;99.90
18169;DHT22;49877;50.398;30.324;2022-10-17T11:44:30;15.60;99.90
18169;DHT22;49877;50.398;30.324;2022-10-17T11:47:03;15.60;99.90
18169;DHT22;49877;50.398;30.324;2022-10-17T11:49:34;15.60;99.90
18169;DHT22;49877;50.398;30.324;2022-10-17T11:52:12;15.70;99.90
18169;DHT22;49877;50.398;30.324;2022-10-17T11:54:49;15.60;99.90
18169;DHT22;49877;50.398;30.324;2022-10-17T11:57:32;15.70;99.90
18169;DHT22;49877;50.398;30.324;2022-10-17T12:00:15;15.80;99.90
18169;DHT22;49877;50.398;30.324;2022-10-17T12:02:50;15.80;99.90
18169;DHT22;49877;50.398;30.324;2022-10-17T12:05:23;15.80;99.90
18169;DHT22;49877;50.398;30.324;2022-10-17T12:07:57;15.90;99.90
18169;DHT22;49877;50.398;30.324;2022-10-17T12:10:33;15.90;99.90
18169;DHT22;49877;50.398;30.324;2022-10-17T12:19:31;16.00;99.90
18169;DHT22;49877;50.398;30.324;2022-10-17T12:22:16;16.00;99.90
18169;DHT22;49877;50.398;30.324;2022-10-17T12:24:44;16.00;99.90
18169;DHT22;49877;50.398;30.324;2022-10-17T12:27:37;16.10;99.90
18169;DHT22;49877;50.398;30.324;2022-10-17T12:30:16;16.10;99.90
18169;DHT22;49877;50.398;30.324;2022-10-17T12:33:05;16.10;99.90
18169;DHT22;49877;50.398;30.324;2022-10-17T12:35:39;16.10;99.90
18169;DHT22;49877;50.398;30.324;2022-10-17T12:38:28;16.10;99.90
18169;DHT22;49877;50.398;30.324;2022-10-17T12:40:57;16.20;99.90
18169;DHT22;49877;50.398;30.324;2022-10-17T12:43:54;16.20;99.90
18169;DHT22;49877;50.398;30.324;2022-10-17T12:46:55;16.20;99.90
18169;DHT22;49877;50.398;30.324;2022-10-17T12:49:40;16.20;99.90
18169;DHT22;49877;50.398;30.324;2022-10-17T12:55:13;16.20;99.90
18169;DHT22;49877;50.398;30.324;2022-10-17T12:57:47;16.20;99.90
18169;DHT22;49877;50.398;30.324;2022-10-17T13:00:21;16.20;99.90
18169;DHT22;49877;50.398;30.324;2022-10-17T13:02:51;16.20;99.90
18169;DHT22;49877;50.398;30.324;2022-10-17T13:05:24;16.20;99.90
18169;DHT22;49877;50.398;30.324;2022-10-17T13:07:52;16.30;99.90
18169;DHT22;49877;50.398;30.324;2022-10-17T13:10:24;16.20;99.90
18169;DHT22;49877;50.398;30.324;2022-10-17T13:12:58;16.20;99.90
18169;DHT22;49877;50.398;30.324;2022-10-17T13:15:27;16.30;99.90
18169;DHT22;49877;50.398;30.324;2022-10-17T13:17:55;16.30;99.90
18169;DHT22;49877;50.398;30.324;2022-10-17T13:20:24;16.20;99.90
18169;DHT22;49877;50.398;30.324;2022-10-17T13:22:53;16.20;99.90
18169;DHT22;49877;50.398;30.324;2022-10-17T13:25:23;16.20;99.90
18169;DHT22;49877;50.398;30.324;2022-10-17T13:27:50;16.20;99.90
18169;DHT22;49877;50.398;30.324;2022-10-17T13:30:29;16.30;99.90
18169;DHT22;49877;50.398;30.324;2022-10-17T13:32:57;16.30;99.90
18169;DHT22;49877;50.398;30.324;2022-10-17T13:35:26;16.30;99.90
18169;DHT22;49877;50.398;30.324;2022-10-17T13:37:54;16.30;99.90
18169;DHT22;49877;50.398;30.324;2022-10-17T13:40:24;16.30;99.90
18169;DHT22;49877;50.398;30.324;2022-10-17T13:42:52;16.30;99.90
18169;DHT22;49877;50.398;30.324;2022-10-17T13:45:27;16.20;99.90
18169;DHT22;49877;50.398;30.324;2022-10-17T13:47:54;16.20;99.90
18169;DHT22;49877;50.398;30.324;2022-10-17T13:50:26;16.20;99.90
18169;DHT22;49877;50.398;30.324;2022-10-17T13:53:07;16.20;99.90
18169;DHT22;49877;50.398;30.324;2022-10-17T13:55:37;16.20;99.90
18169;DHT22;49877;50.398;30.324;2022-10-17T13:58:14;16.20;99.90
18169;DHT22;49877;50.398;30.324;2022-10-17T14:00:43;16.20;99.90
18169;DHT22;49877;50.398;30.324;2022-10-17T14:03:10;16.10;99.90
18169;DHT22;49877;50.398;30.324;2022-10-17T14:06:10;16.10;99.90
18169;DHT22;49877;50.398;30.324;2022-10-17T14:08:45;16.10;99.90
18169;DHT22;49877;50.398;30.324;2022-10-17T14:11:21;16.10;99.90
18169;DHT22;49877;50.398;30.324;2022-10-17T14:13:51;16.10;99.90
18169;DHT22;49877;50.398;30.324;2022-10-17T14:16:18;16.10;99.90
18169;DHT22;49877;50.398;30.324;2022-10-17T14:18:47;16.00;99.90
18169;DHT22;49877;50.398;30.324;2022-10-17T14:21:18;16.00;99.90
18169;DHT22;49877;50.398;30.324;2022-10-17T14:23:46;16.00;99.90
18169;DHT22;49877;50.398;30.324;2022-10-17T14:26:17;15.90;99.90
18169;DHT22;49877;50.398;30.324;2022-10-17T14:28:46;15.90;99.90
18169;DHT22;49877;50.398;30.324;2022-10-17T14:31:21;15.90;99.90
18169;DHT22;49877;50.398;30.324;2022-10-17T14:33:50;15.80;99.90
18169;DHT22;49877;50.398;30.324;2022-10-17T14:36:18;15.80;99.90
18169;DHT22;49877;50.398;30.324;2022-10-17T14:38:47;15.80;99.90
18169;DHT22;49877;50.398;30.324;2022-10-17T14:41:21;15.70;99.90
18169;DHT22;49877;50.398;30.324;2022-10-17T14:43:53;15.70;99.90
18169;DHT22;49877;50.398;30.324;2022-10-17T14:46:21;15.60;99.90
18169;DHT22;49877;50.398;30.324;2022-10-17T14:48:54;15.60;99.90
18169;DHT22;49877;50.398;30.324;2022-10-17T14:51:22;15.60;99.90
18169;DHT22;49877;50.398;30.324;2022-10-17T14:54:17;15.50;99.90
18169;DHT22;49877;50.398;30.324;2022-10-17T14:56:50;15.50;99.90
18169;DHT22;49877;50.398;30.324;2022-10-17T14:59:18;15.40;99.90
18169;DHT22;49877;50.398;30.324;2022-10-17T15:01:48;15.40;99.90
18169;DHT22;49877;50.398;30.324;2022-10-17T15:04:15;15.30;99.90
18169;DHT22;49877;50.398;30.324;2022-10-17T15:06:43;15.30;99.90
18169;DHT22;49877;50.398;30.324;2022-10-17T15:09:10;15.30;99.90
18169;DHT22;49877;50.398;30.324;2022-10-17T15:11:37;15.20;99.90
18169;DHT22;49877;50.398;30.324;2022-10-17T15:14:05;15.20;99.90
18169;DHT22;49877;50.398;30.324;2022-10-17T15:16:33;15.10;99.90
18169;DHT22;49877;50.398;30.324;2022-10-17T15:19:01;15.10;99.90
18169;DHT22;49877;50.398;30.324;2022-10-17T15:21:28;15.00;99.90
18169;DHT22;49877;50.398;30.324;2022-10-17T15:23:55;15.00;99.90
18169;DHT22;49877;50.398;30.324;2022-10-17T15:26:24;14.90;99.90
18169;DHT22;49877;50.398;30.324;2022-10-17T15:28:52;14.90;99.90
18169;DHT22;49877;50.398;30.324;2022-10-17T15:31:22;14.80;99.90
18169;DHT22;49877;50.398;30.324;2022-10-17T15:33:49;14.80;99.90
18169;DHT22;49877;50.398;30.324;2022-10-17T15:36:21;14.80;99.90
18169;DHT22;49877;50.398;30.324;2022-10-17T15:38:49;14.70;99.90
18169;DHT22;49877;50.398;30.324;2022-10-17T15:41:16;14.70;99.90
18169;DHT22;49877;50.398;30.324;2022-10-17T15:43:43;14.70;99.90
18169;DHT22;49877;50.398;30.324;2022-10-17T15:46:11;14.60;99.90
18169;DHT22;49877;50.398;30.324;2022-10-17T15:48:40;14.50;99.90
18169;DHT22;49877;50.398;30.324;2022-10-17T15:51:08;14.50;99.90
18169;DHT22;49877;50.398;30.324;2022-10-17T15:53:34;14.40;99.90
18169;DHT22;49877;50.398;30.324;2022-10-17T15:56:02;14.40;99.90